createdAt,value
2022-08-03T00:02:20.294Z,61.61
2022-08-03T00:04:48.155Z,60.68
2022-08-03T00:07:16.302Z,59.91
2022-08-03T00:09:44.645Z,57.22
2022-08-03T00:12:12.835Z,58.44
2022-08-03T00:14:40.705Z,60.84
2022-08-03T00:17:09.629Z,66.37
2022-08-03T00:19:37.296Z,65.90
2022-08-03T00:22:04.996Z,62.59
2022-08-03T00:24:32.648Z,60.54
2022-08-03T00:27:00.371Z,56.69
2022-08-03T00:29:28.145Z,57.29
2022-08-03T00:31:59.507Z,59.68
2022-08-03T00:34:57.878Z,65.58
2022-08-03T00:37:16.872Z,66.02
2022-08-03T00:39:47.299Z,63.03
2022-08-03T00:42:15.843Z,61.46
2022-08-03T00:44:47.285Z,60.35
2022-08-03T00:47:15.163Z,59.39
2022-08-03T00:49:43.310Z,56.91
2022-08-03T00:52:15.496Z,58.61
2022-08-03T00:54:43.602Z,61.16
2022-08-03T00:57:11.582Z,66.14
2022-08-03T00:59:39.788Z,65.27
2022-08-03T01:02:08.236Z,63.01
2022-08-03T01:04:36.036Z,60.85
2022-08-03T01:07:20.678Z,58.33
2022-08-03T01:10:31.583Z,58.21
2022-08-03T01:14:02.001Z,63.17
2022-08-03T01:16:49.767Z,65.34
2022-08-03T01:19:54.442Z,63.51
2022-08-03T01:22:45.159Z,61.81
2022-08-03T01:25:38.610Z,60.86
2022-08-03T01:28:31.345Z,60.65
2022-08-03T01:31:06.739Z,59.78
2022-08-03T01:34:02.814Z,56.84
2022-08-03T01:36:38.572Z,58.21
2022-08-03T01:39:11.545Z,60.36
2022-08-03T01:41:59.381Z,66.98
2022-08-03T01:44:36.085Z,66.75
2022-08-03T01:47:06.505Z,63.63
2022-08-03T01:49:40.687Z,61.91
2022-08-03T01:52:09.553Z,62.27
2022-08-03T01:54:44.320Z,62.32
2022-08-03T01:57:15.209Z,62.09
2022-08-03T01:59:44.805Z,60.63
2022-08-03T02:02:33.591Z,59.64
2022-08-03T02:05:10.584Z,56.80
2022-08-03T02:07:42.793Z,59.13
2022-08-03T02:10:14.534Z,63.45
2022-08-03T02:12:46.457Z,66.67
2022-08-03T02:15:18.510Z,63.81
2022-08-03T02:17:48.627Z,62.14
2022-08-03T02:20:17.505Z,62.30
2022-08-03T02:22:46.814Z,62.16
2022-08-03T02:25:17.570Z,61.70
2022-08-03T02:27:56.567Z,61.01
2022-08-03T02:30:38.697Z,60.07
2022-08-03T02:33:19.950Z,57.62
2022-08-03T02:35:50.471Z,60.32
2022-08-03T02:38:23.679Z,66.66
2022-08-03T02:40:55.520Z,66.19
2022-08-03T02:43:24.868Z,63.06
2022-08-03T02:45:54.513Z,62.10
2022-08-03T02:48:27.459Z,60.55
2022-08-03T02:51:00.585Z,60.70
2022-08-03T02:53:30.681Z,60.15
2022-08-03T02:56:02.364Z,60.09
2022-08-03T02:58:32.379Z,57.16
2022-08-03T03:01:01.941Z,58.79
2022-08-03T03:03:31.920Z,61.16
2022-08-03T03:06:05.712Z,66.67
2022-08-03T03:08:34.445Z,64.60
2022-08-03T03:11:05.508Z,63.53
2022-08-03T03:13:34.333Z,60.95
2022-08-03T03:16:06.333Z,60.42
2022-08-03T03:18:35.400Z,59.32
2022-08-03T03:21:05.352Z,60.14
2022-08-03T03:23:37.470Z,65.63
2022-08-03T03:26:08.209Z,65.89
2022-08-03T03:28:39.658Z,63.17
2022-08-03T03:31:08.784Z,61.61
2022-08-03T03:33:39.077Z,60.67
2022-08-03T03:36:08.493Z,59.73
2022-08-03T03:38:37.197Z,56.93
2022-08-03T03:41:05.801Z,58.32
2022-08-03T03:43:34.156Z,61.49
2022-08-03T03:46:02.949Z,66.84
2022-08-03T03:48:30.797Z,66.90
2022-08-03T03:51:01.424Z,63.89
2022-08-03T03:53:29.212Z,61.39
2022-08-03T03:55:59.774Z,60.98
2022-08-03T03:58:32.881Z,59.01
2022-08-03T04:01:01.810Z,58.34
2022-08-03T04:03:29.706Z,63.48
2022-08-03T04:06:16.958Z,65.22
2022-08-03T04:09:04.465Z,63.95
2022-08-03T04:11:40.703Z,62.58
2022-08-03T04:14:13.600Z,61.73
2022-08-03T04:16:52.201Z,60.79
2022-08-03T04:19:40.354Z,60.12
2022-08-03T04:22:14.129Z,57.60
2022-08-03T04:24:53.753Z,59.23
2022-08-03T04:27:26.266Z,61.04
2022-08-03T04:29:57.452Z,67.63
2022-08-03T04:32:28.757Z,67.33
2022-08-03T04:34:57.444Z,63.78
2022-08-03T04:37:48.101Z,62.10
2022-08-03T04:40:25.238Z,59.99
2022-08-03T04:43:00.142Z,57.73
2022-08-03T04:45:30.537Z,58.29
2022-08-03T04:47:59.601Z,61.71
2022-08-03T04:50:31.256Z,68.61
2022-08-03T04:52:59.810Z,66.52
2022-08-03T04:55:31.582Z,63.76
2022-08-03T04:58:02.238Z,62.05
2022-08-03T05:00:30.502Z,61.22
2022-08-03T05:02:58.485Z,60.15
2022-08-03T05:05:26.976Z,59.77
2022-08-03T05:08:14.626Z,57.18
2022-08-03T05:10:42.292Z,59.78
2022-08-03T05:13:14.003Z,66.12
2022-08-03T05:15:43.002Z,65.35
2022-08-03T05:18:14.098Z,62.26
2022-08-03T05:20:42.140Z,60.97
2022-08-03T05:23:09.832Z,58.59
2022-08-03T05:25:37.505Z,56.77
2022-08-03T05:28:07.235Z,59.67
2022-08-03T05:30:35.016Z,65.50
2022-08-03T05:33:04.284Z,66.21
2022-08-03T05:35:56.096Z,61.63
2022-08-03T05:38:28.349Z,60.53
2022-08-03T05:41:21.711Z,57.18
2022-08-03T05:43:47.024Z,57.61
2022-08-03T05:46:14.768Z,60.03
2022-08-03T05:48:43.763Z,65.53
2022-08-03T05:51:12.072Z,65.31
2022-08-03T05:53:42.135Z,60.97
2022-08-03T05:56:14.428Z,57.66
2022-08-03T05:58:46.964Z,58.04
2022-08-03T06:01:17.394Z,59.70
2022-08-03T06:03:46.389Z,64.65
2022-08-03T06:06:14.789Z,62.80
2022-08-03T06:08:44.235Z,60.20
2022-08-03T06:11:12.722Z,60.06
2022-08-03T06:13:41.172Z,59.61
2022-08-03T06:16:09.763Z,58.69
2022-08-03T06:18:38.586Z,59.18
2022-08-03T06:21:14.422Z,60.68
2022-08-03T06:23:55.102Z,65.94
2022-08-03T06:26:26.569Z,65.22
2022-08-03T06:28:55.583Z,60.89
2022-08-03T06:31:32.767Z,60.24
2022-08-03T06:34:30.757Z,59.61
2022-08-03T06:36:58.476Z,59.06
2022-08-03T06:39:30.145Z,59.69
2022-08-03T06:41:58.272Z,64.74
2022-08-03T06:44:26.311Z,63.38
2022-08-03T06:46:54.063Z,61.15
2022-08-03T06:49:21.847Z,57.99
2022-08-03T06:52:04.356Z,58.83
2022-08-03T06:54:35.938Z,63.21
2022-08-03T06:57:05.184Z,64.14
2022-08-03T07:00:09.730Z,61.80
2022-08-03T07:02:20.897Z,61.03
2022-08-03T07:04:49.352Z,59.50
2022-08-03T07:07:17.950Z,59.26
2022-08-03T07:09:57.558Z,62.96
2022-08-03T07:12:30.594Z,63.33
2022-08-03T07:15:02.823Z,61.86
2022-08-03T07:17:36.028Z,59.93
2022-08-03T07:20:08.607Z,59.58
2022-08-03T07:22:36.441Z,62.89
2022-08-03T07:25:05.208Z,63.56
2022-08-03T07:27:33.942Z,61.23
2022-08-03T07:30:02.905Z,58.65
2022-08-03T07:32:31.793Z,60.24
2022-08-03T07:35:01.139Z,63.38
2022-08-03T07:37:30.958Z,62.61
2022-08-03T07:40:01.182Z,60.20
2022-08-03T07:42:31.360Z,58.24
2022-08-03T07:45:00.030Z,59.87
2022-08-03T07:47:35.492Z,63.53
2022-08-03T07:50:08.608Z,62.42
2022-08-03T07:52:49.688Z,59.99
2022-08-03T07:55:21.263Z,57.85
2022-08-03T07:58:12.557Z,60.37
2022-08-03T08:00:40.347Z,63.78
2022-08-03T08:03:08.910Z,62.20
2022-08-03T08:05:36.963Z,58.48
2022-08-03T08:08:05.229Z,59.24
2022-08-03T08:10:33.865Z,61.05
2022-08-03T08:13:03.538Z,62.94
2022-08-03T08:15:32.390Z,60.19
2022-08-03T08:18:02.794Z,57.83
2022-08-03T08:20:37.924Z,59.49
2022-08-03T08:23:09.627Z,61.57
2022-08-03T08:25:56.665Z,63.46
2022-08-03T08:28:32.370Z,61.20
2022-08-03T08:31:02.375Z,58.42
2022-08-03T08:33:54.219Z,59.50
2022-08-03T08:36:19.526Z,60.53
2022-08-03T08:38:47.779Z,63.01
2022-08-03T08:41:17.381Z,60.32
2022-08-03T08:43:47.815Z,57.46
2022-08-03T08:46:22.929Z,58.01
2022-08-03T08:48:54.493Z,60.22
2022-08-03T08:51:59.405Z,61.72
2022-08-03T08:54:22.399Z,61.93
2022-08-03T08:56:57.398Z,65.06
2022-08-03T08:59:26.260Z,60.60
2022-08-03T09:01:58.767Z,57.97
2022-08-03T09:04:29.312Z,58.75
2022-08-03T09:07:17.974Z,59.49
2022-08-03T09:10:10.110Z,60.86
2022-08-03T09:12:42.179Z,61.68
2022-08-03T09:15:39.211Z,60.38
2022-08-03T09:18:07.097Z,61.48
2022-08-03T09:20:37.094Z,61.65
2022-08-03T09:23:58.892Z,62.49
2022-08-03T09:26:00.031Z,59.08
2022-08-03T09:29:00.140Z,57.25
2022-08-03T09:31:45.467Z,58.41
2022-08-03T09:34:16.830Z,59.27
2022-08-03T09:36:47.330Z,59.13
2022-08-03T09:39:41.802Z,59.67
2022-08-03T09:42:17.502Z,60.48
2022-08-03T09:44:49.847Z,61.06
2022-08-03T09:47:30.319Z,61.12
2022-08-03T09:50:02.398Z,61.18
2022-08-03T09:52:50.139Z,61.71
2022-08-03T09:56:33.495Z,62.39
2022-08-03T09:58:13.630Z,60.22
2022-08-03T10:01:05.996Z,57.69
2022-08-03T10:04:02.729Z,58.79
2022-08-03T10:06:29.008Z,59.82
2022-08-03T10:09:11.130Z,61.83
2022-08-03T10:11:42.096Z,62.47
2022-08-03T10:14:19.635Z,61.62
2022-08-03T10:16:49.585Z,58.22
2022-08-03T10:19:17.620Z,57.68
2022-08-03T10:22:10.752Z,58.56
2022-08-03T10:24:44.181Z,59.28
2022-08-03T10:27:15.281Z,58.38
2022-08-03T10:29:55.149Z,59.83
2022-08-03T10:32:32.981Z,59.29
2022-08-03T10:35:20.066Z,59.30
2022-08-03T10:37:59.216Z,58.47
2022-08-03T10:40:48.204Z,58.29
2022-08-03T10:43:27.615Z,57.52
2022-08-03T10:45:56.757Z,58.18
2022-08-03T10:48:26.426Z,58.54
2022-08-03T10:50:55.520Z,57.59
2022-08-03T10:53:39.124Z,57.15
2022-08-03T10:56:51.095Z,56.12
2022-08-03T10:59:35.858Z,56.16
2022-08-03T11:02:03.712Z,55.98
2022-08-03T11:04:31.385Z,55.89
2022-08-03T11:07:18.736Z,54.97
2022-08-03T11:09:53.865Z,54.42
2022-08-03T11:12:33.680Z,53.75
2022-08-03T11:15:06.728Z,54.55
2022-08-03T11:17:46.150Z,54.23
2022-08-03T11:20:56.079Z,55.05
2022-08-03T11:24:03.048Z,54.27
2022-08-03T11:26:34.674Z,53.90
2022-08-03T11:29:31.296Z,54.02
2022-08-03T11:31:59.079Z,54.53
2022-08-03T11:34:26.910Z,55.12
2022-08-03T11:37:28.789Z,55.34
2022-08-03T11:39:59.325Z,54.47
2022-08-03T11:42:29.112Z,54.63
2022-08-03T11:44:59.727Z,55.14
2022-08-03T11:47:30.394Z,55.39
2022-08-03T11:50:02.248Z,54.49
2022-08-03T11:52:39.925Z,54.47
2022-08-03T11:55:13.877Z,54.12
2022-08-03T11:59:13.190Z,53.90
2022-08-03T12:00:32.625Z,54.57
2022-08-03T12:03:11.858Z,54.26
2022-08-03T12:05:51.297Z,53.23
2022-08-03T12:08:34.101Z,53.31
2022-08-03T12:11:06.791Z,53.13
2022-08-03T12:14:45.437Z,52.43
2022-08-03T12:16:28.636Z,53.35
2022-08-03T12:19:03.446Z,54.40
2022-08-03T12:21:32.252Z,54.50
2022-08-03T12:24:05.938Z,54.17
2022-08-03T12:26:58.093Z,54.63
2022-08-03T12:29:27.912Z,54.81
2022-08-03T12:31:56.391Z,55.22
2022-08-03T12:34:24.408Z,55.54
2022-08-03T12:36:56.831Z,55.72
2022-08-03T12:39:27.965Z,55.27
2022-08-03T12:41:57.590Z,55.62
2022-08-03T12:44:36.324Z,55.56
2022-08-03T12:47:06.770Z,55.07
2022-08-03T12:49:57.123Z,54.16
2022-08-03T12:52:27.250Z,54.98
2022-08-03T12:55:00.954Z,55.17
2022-08-03T12:57:42.481Z,54.72
2022-08-03T13:00:28.707Z,53.97
2022-08-03T13:05:55.415Z,53.86
2022-08-03T13:08:25.713Z,54.30
2022-08-03T13:10:54.025Z,54.75
2022-08-03T13:13:40.924Z,55.85
2022-08-03T13:16:08.634Z,56.24
2022-08-03T13:18:36.328Z,55.98
2022-08-03T13:21:05.957Z,55.97
2022-08-03T13:23:34.024Z,55.71
2022-08-03T13:26:01.733Z,55.63
2022-08-03T13:28:29.846Z,54.97
2022-08-03T13:30:57.608Z,55.46
2022-08-03T13:33:28.485Z,56.09
2022-08-03T13:35:56.905Z,55.46
2022-08-03T13:38:27.235Z,55.10
2022-08-03T13:40:56.177Z,54.63
2022-08-03T13:43:24.033Z,53.70
2022-08-03T13:45:54.980Z,53.96
2022-08-03T13:48:36.979Z,53.79
2022-08-03T13:51:22.092Z,53.97
2022-08-03T13:53:53.949Z,54.36
2022-08-03T13:56:21.725Z,54.48
2022-08-03T13:58:49.440Z,54.14
2022-08-03T14:01:18.575Z,54.31
2022-08-03T14:03:54.167Z,53.80
2022-08-03T14:06:23.356Z,52.91
2022-08-03T14:08:52.030Z,52.95
2022-08-03T14:11:19.960Z,52.98
2022-08-03T14:13:48.011Z,53.28
2022-08-03T14:16:16.944Z,54.15
2022-08-03T14:18:45.889Z,54.80
2022-08-03T14:21:14.075Z,55.35
2022-08-03T14:23:41.963Z,55.40
2022-08-03T14:26:11.987Z,55.55
2022-08-03T14:28:39.910Z,56.01
2022-08-03T14:31:08.562Z,56.64
2022-08-03T14:33:55.901Z,56.72
2022-08-03T14:36:23.636Z,56.13
2022-08-03T14:38:51.681Z,56.26
2022-08-03T14:41:20.357Z,56.40
2022-08-03T14:44:02.000Z,56.00
2022-08-03T14:46:31.780Z,55.86
2022-08-03T14:50:31.914Z,55.75
2022-08-03T14:51:53.540Z,55.08
2022-08-03T14:54:22.963Z,54.57
2022-08-03T14:56:51.627Z,54.63
2022-08-03T14:59:19.382Z,54.79
2022-08-03T15:02:04.627Z,55.38
2022-08-03T15:04:34.706Z,55.83
2022-08-03T15:07:03.508Z,55.46
2022-08-03T15:09:32.052Z,55.44
2022-08-03T15:11:59.872Z,54.99
2022-08-03T15:14:28.424Z,54.70
2022-08-03T15:17:01.668Z,54.68
2022-08-03T15:20:02.037Z,54.36
2022-08-03T15:22:20.736Z,54.60
2022-08-03T15:24:53.865Z,54.15
2022-08-03T15:27:22.458Z,53.09
2022-08-03T15:30:04.802Z,53.41
2022-08-03T15:32:37.662Z,53.29
2022-08-03T15:35:06.135Z,53.14
2022-08-03T15:37:33.998Z,53.12
2022-08-03T15:40:02.456Z,52.75
2022-08-03T15:42:32.813Z,52.22
2022-08-03T15:45:00.590Z,52.36
2022-08-03T15:47:28.317Z,52.56
2022-08-03T15:49:56.566Z,52.60
2022-08-03T15:52:24.424Z,52.83
2022-08-03T15:54:52.568Z,52.74
2022-08-03T15:57:21.199Z,52.84
2022-08-03T15:59:49.432Z,52.67
2022-08-03T16:02:17.415Z,52.52
2022-08-03T16:04:45.523Z,52.44
2022-08-03T16:07:15.918Z,52.01
2022-08-03T16:09:44.279Z,51.95
2022-08-03T16:12:16.046Z,52.28
2022-08-03T16:14:52.807Z,52.61
2022-08-03T16:17:22.707Z,52.58
2022-08-03T16:19:52.263Z,52.40
2022-08-03T16:22:26.392Z,52.63
2022-08-03T16:24:55.457Z,53.07
2022-08-03T16:27:56.561Z,53.24
2022-08-03T16:30:18.109Z,53.60
2022-08-03T16:32:47.402Z,53.41
2022-08-03T16:35:19.449Z,53.54
2022-08-03T16:37:54.678Z,53.74
2022-08-03T16:40:26.064Z,53.62
2022-08-03T16:42:54.149Z,53.40
2022-08-03T16:45:22.219Z,53.77
2022-08-03T16:48:01.780Z,53.64
2022-08-03T16:50:35.609Z,53.86
2022-08-03T16:53:09.043Z,54.28
2022-08-03T16:55:48.523Z,54.29
2022-08-03T16:58:34.223Z,54.62
2022-08-03T17:01:21.521Z,54.91
2022-08-03T17:04:01.317Z,55.28
2022-08-03T17:06:44.672Z,55.78
2022-08-03T17:09:18.988Z,55.15
2022-08-03T17:11:51.163Z,55.50
2022-08-03T17:14:29.250Z,56.51
2022-08-03T17:17:01.498Z,56.69
2022-08-03T17:19:31.456Z,56.59
2022-08-03T17:22:08.884Z,56.19
2022-08-03T17:24:41.105Z,56.36
2022-08-03T17:28:48.438Z,56.51
2022-08-03T17:30:13.550Z,56.88
2022-08-03T17:32:57.838Z,57.13
2022-08-03T17:35:34.527Z,57.45
2022-08-03T17:38:10.660Z,57.65
2022-08-03T17:40:49.942Z,57.75
2022-08-03T17:44:13.580Z,57.98
2022-08-03T17:46:22.805Z,58.00
2022-08-03T17:48:51.770Z,58.16
2022-08-03T17:51:48.815Z,58.33
2022-08-03T17:55:50.729Z,57.82
2022-08-03T17:58:02.218Z,58.46
2022-08-03T18:00:52.235Z,58.75
2022-08-03T18:03:57.847Z,59.28
2022-08-03T18:06:28.587Z,59.62
2022-08-03T18:09:04.791Z,60.10
2022-08-03T18:11:56.646Z,60.38
2022-08-03T18:15:01.436Z,60.37
2022-08-03T18:18:01.382Z,60.81
2022-08-03T18:20:38.493Z,61.04
2022-08-03T18:23:20.467Z,61.02
2022-08-03T18:26:06.843Z,61.07
2022-08-03T18:28:38.423Z,61.07
2022-08-03T18:31:11.896Z,61.08
2022-08-03T18:34:19.021Z,61.40
2022-08-03T18:36:31.097Z,61.62
2022-08-03T18:39:02.730Z,61.95
2022-08-03T18:41:35.189Z,62.12
2022-08-03T18:44:09.067Z,62.13
2022-08-03T18:47:52.304Z,62.29
2022-08-03T18:51:09.807Z,62.42
2022-08-03T18:54:07.403Z,60.07
2022-08-03T18:56:51.550Z,57.90
2022-08-03T18:59:46.905Z,58.52
2022-08-03T19:02:58.514Z,59.84
2022-08-03T19:05:56.512Z,60.95
2022-08-03T19:08:33.437Z,61.31
2022-08-03T19:11:05.918Z,61.57
2022-08-03T19:13:56.717Z,62.17
2022-08-03T19:16:39.565Z,62.35
2022-08-03T19:19:14.452Z,57.80
2022-08-03T19:21:46.014Z,57.36
2022-08-03T19:24:22.269Z,57.99
2022-08-03T19:26:56.167Z,59.17
2022-08-03T19:29:25.296Z,59.72
2022-08-03T19:32:19.628Z,60.74
2022-08-03T19:34:51.350Z,60.74
2022-08-03T19:37:22.097Z,59.71
2022-08-03T19:39:56.664Z,59.10
2022-08-03T19:42:37.791Z,59.78
2022-08-03T19:48:14.378Z,57.52
2022-08-03T19:50:44.588Z,57.31
2022-08-03T19:53:13.450Z,56.75
2022-08-03T19:55:46.444Z,56.01
2022-08-03T19:58:28.547Z,55.17
2022-08-03T20:00:57.635Z,54.96
2022-08-03T20:03:43.308Z,55.20
2022-08-03T20:06:12.545Z,55.50
2022-08-03T20:08:48.211Z,54.67
2022-08-03T20:11:21.052Z,54.49
2022-08-03T20:13:58.518Z,54.35
2022-08-03T20:16:26.881Z,53.84
2022-08-03T20:18:54.717Z,53.33
2022-08-03T20:21:28.508Z,53.10
2022-08-03T20:24:24.598Z,52.58
2022-08-03T20:26:55.345Z,52.02
2022-08-03T20:30:05.314Z,52.08
2022-08-03T20:32:24.964Z,52.07
2022-08-03T20:34:53.336Z,52.19
2022-08-03T20:37:21.386Z,52.20
2022-08-03T20:39:49.807Z,51.67
2022-08-03T20:42:21.640Z,50.85
2022-08-03T20:45:06.216Z,50.51
2022-08-03T20:47:50.940Z,50.26
2022-08-03T20:50:22.090Z,50.55
2022-08-03T20:52:50.580Z,50.88
2022-08-03T20:55:20.376Z,49.92
2022-08-03T20:58:07.954Z,50.77
2022-08-03T21:00:35.765Z,51.31
2022-08-03T21:03:04.063Z,51.72
2022-08-03T21:05:48.219Z,51.84
2022-08-03T21:08:24.503Z,51.90
2022-08-03T21:10:57.047Z,52.47
2022-08-03T21:13:02.805Z,58.22
2022-08-03T21:13:40.654Z,52.79
2022-08-03T21:16:14.995Z,52.85
2022-08-03T21:18:48.939Z,52.63
2022-08-03T21:21:22.108Z,52.23
2022-08-03T21:23:54.770Z,51.88
2022-08-03T21:26:26.209Z,51.96
2022-08-03T21:28:56.922Z,51.86
2022-08-03T21:31:26.988Z,51.77
2022-08-03T21:33:59.605Z,51.65
2022-08-03T21:36:31.847Z,51.82
2022-08-03T21:39:01.321Z,51.86
2022-08-03T21:41:32.777Z,51.81
2022-08-03T21:44:01.925Z,51.92
2022-08-03T21:46:41.244Z,52.10
2022-08-03T21:50:07.443Z,52.38
2022-08-03T21:52:05.836Z,52.50
2022-08-03T21:54:42.754Z,52.59
2022-08-03T21:57:24.039Z,52.90
2022-08-03T22:00:01.671Z,53.09
2022-08-03T22:02:32.352Z,53.01
2022-08-03T22:05:00.625Z,53.52
2022-08-03T22:07:34.928Z,53.71
2022-08-03T22:10:06.504Z,54.16
2022-08-03T22:12:35.849Z,54.72
2022-08-03T22:15:09.762Z,55.35
2022-08-03T22:17:55.621Z,55.63
2022-08-03T22:20:25.652Z,56.08
2022-08-03T22:22:57.526Z,56.88
2022-08-03T22:25:33.136Z,56.98
2022-08-03T22:28:07.595Z,57.36
2022-08-03T22:30:37.540Z,57.60
2022-08-03T22:33:11.043Z,57.92
2022-08-03T22:35:47.928Z,58.37
2022-08-03T22:38:18.831Z,58.56
2022-08-03T22:40:50.991Z,59.30
2022-08-03T22:43:24.857Z,59.46
2022-08-03T22:46:08.970Z,59.61
2022-08-03T22:48:40.794Z,60.05
2022-08-03T22:51:10.509Z,60.26
2022-08-03T22:53:40.688Z,60.42
2022-08-03T22:56:09.060Z,60.41
2022-08-03T22:58:37.184Z,60.16
2022-08-03T23:01:11.877Z,60.06
2022-08-03T23:03:59.854Z,60.04
2022-08-03T23:06:40.469Z,59.95
2022-08-03T23:09:13.967Z,59.81
2022-08-03T23:11:45.401Z,60.04
2022-08-03T23:14:18.466Z,60.33
2022-08-03T23:16:48.084Z,60.62
2022-08-03T23:19:25.045Z,61.08
2022-08-03T23:22:02.341Z,61.30
2022-08-03T23:24:37.155Z,61.74
2022-08-03T23:27:07.759Z,68.57
2022-08-03T23:29:38.471Z,63.71
2022-08-03T23:32:07.317Z,59.05
2022-08-03T23:34:57.817Z,55.59
2022-08-03T23:37:26.768Z,55.96
2022-08-03T23:39:57.319Z,57.38
2022-08-03T23:42:27.376Z,58.32
2022-08-03T23:45:04.715Z,58.88
2022-08-03T23:47:46.446Z,59.41
2022-08-03T23:50:16.829Z,60.54
2022-08-03T23:53:19.366Z,61.01
2022-08-03T23:55:52.963Z,69.55
2022-08-03T23:59:10.737Z,68.76
